Time;durP1;ratioP1;P1;durP2;ratioP2;P2;SDS_P1;SDS_P2;PMS_P1;PMS_P2;Temp;Humidity;BMP_temperature;BMP_pressure;BME280_temperature;BME280_humidity;BME280_pressure;Samples;Min_cycle;Max_cycle;Signal;HPM_P1;HPM_P2
2022/11/11 00:00:16;;;;;;;4.73;2.20;;;6.30;99.90;;;;;;4987182;28;20450;-71
2022/11/11 00:02:43;;;;;;;3.03;1.93;;;6.10;99.90;;;;;;4985287;28;20468;-71
2022/11/11 00:05:10;;;;;;;6.30;3.07;;;6.20;99.90;;;;;;4991391;28;20454;-71
2022/11/11 00:07:37;;;;;;;2.90;2.50;;;6.20;99.90;;;;;;4975115;28;20455;-71
2022/11/11 00:10:04;;;;;;;2.70;2.13;;;6.20;99.90;;;;;;4991223;28;20568;-70
2022/11/11 00:12:31;;;;;;;2.73;2.20;;;6.10;99.90;;;;;;4982628;28;20472;-71
2022/11/11 00:14:59;;;;;;;6.77;2.50;;;6.10;99.90;;;;;;4978548;28;20941;-71
2022/11/11 00:25:40;;;;;;;2.87;2.10;;;6.20;99.90;;;;;;4981341;28;20460;-71
2022/11/11 00:28:07;;;;;;;3.40;2.70;;;6.20;99.90;;;;;;4986887;28;20484;-71
2022/11/11 00:30:35;;;;;;;5.07;2.30;;;6.20;99.90;;;;;;4986008;28;20488;-71
2022/11/11 00:33:02;;;;;;;4.30;2.03;;;6.20;99.90;;;;;;4979807;28;20826;-71
2022/11/11 00:38:44;;;;;;;2.07;1.70;;;6.00;99.90;;;;;;4975853;28;20525;-71
2022/11/11 00:41:02;;;;;;;3.07;1.90;;;5.90;99.90;;;;;;4991245;28;20939;-70
2022/11/11 00:43:29;;;;;;;3.50;2.40;;;6.00;99.90;;;;;;4985904;28;20460;-71
2022/11/11 00:50:57;;;;;;;2.70;1.90;;;6.10;99.90;;;;;;4978538;28;20470;-71
2022/11/11 00:51:29;;;;;;;8.73;2.00;;;6.00;99.90;;;;;;4982725;28;20555;-71
2022/11/11 00:53:56;;;;;;;1.83;1.70;;;6.10;99.90;;;;;;4985162;28;20456;-71
2022/11/11 00:56:23;;;;;;;3.93;2.23;;;6.10;99.90;;;;;;4977980;28;20911;-71
2022/11/11 00:58:50;;;;;;;4.73;2.23;;;6.10;99.90;;;;;;4988633;28;20461;-71
2022/11/11 01:01:18;;;;;;;2.93;1.97;;;6.10;99.90;;;;;;4984518;28;20853;-71
2022/11/11 01:03:45;;;;;;;2.10;1.40;;;6.00;99.90;;;;;;4985874;28;20466;-71
2022/11/11 01:06:13;;;;;;;3.40;2.30;;;6.00;99.90;;;;;;4983842;28;20519;-71
2022/11/11 01:08:41;;;;;;;5.00;2.40;;;6.00;99.90;;;;;;4982919;28;20472;-71
2022/11/11 01:11:13;;;;;;;1.63;1.33;;;5.90;99.90;;;;;;4987983;28;20578;-71
2022/11/11 01:13:40;;;;;;;4.97;2.43;;;5.90;99.90;;;;;;4979593;28;20444;-71
2022/11/11 01:16:10;;;;;;;4.43;2.70;;;5.90;99.90;;;;;;4989418;28;20456;-71
2022/11/11 01:18:38;;;;;;;5.13;2.90;;;5.80;99.90;;;;;;4979127;28;20815;-70
2022/11/11 01:21:07;;;;;;;3.50;2.50;;;5.90;99.90;;;;;;4984487;28;20460;-70
2022/11/11 01:23:36;;;;;;;2.40;1.67;;;5.70;99.90;;;;;;4984273;28;20452;-71
2022/11/11 01:26:04;;;;;;;2.30;2.10;;;5.90;99.90;;;;;;4979452;28;20463;-71
2022/11/11 01:28:31;;;;;;;4.57;2.50;;;5.90;99.90;;;;;;4980445;28;20461;-71
2022/11/11 01:31:02;;;;;;;2.27;1.60;;;5.60;99.90;;;;;;4987198;28;20499;-71
2022/11/11 01:33:28;;;;;;;2.83;2.00;;;5.70;99.90;;;;;;4981075;28;20452;-72
2022/11/11 01:36:02;;;;;;;3.67;3.00;;;5.70;99.90;;;;;;4990477;28;20987;-72
2022/11/11 01:38:29;;;;;;;2.80;2.20;;;5.80;99.90;;;;;;4984804;28;20445;-71
2022/11/11 01:40:56;;;;;;;2.57;2.00;;;5.90;99.90;;;;;;4990320;28;20456;-73
2022/11/11 01:43:23;;;;;;;2.97;2.33;;;5.80;99.90;;;;;;4986462;28;20445;-71
2022/11/11 01:45:56;;;;;;;3.83;1.67;;;5.80;99.90;;;;;;4989017;28;20462;-72
2022/11/11 01:51:25;;;;;;;3.87;2.30;;;5.90;99.90;;;;;;4979511;28;20475;-71
2022/11/11 01:53:57;;;;;;;2.23;1.77;;;6.00;99.90;;;;;;4978179;28;20453;-71
2022/11/11 01:56:25;;;;;;;2.70;1.90;;;5.70;99.90;;;;;;4987649;28;20452;-71
2022/11/11 01:58:55;;;;;;;4.10;2.30;;;5.80;99.90;;;;;;4990688;28;20830;-71
2022/11/11 02:01:22;;;;;;;2.53;2.33;;;5.80;99.90;;;;;;4996577;28;20492;-71
2022/11/11 02:06:34;;;;;;;1.93;1.63;;;5.90;99.90;;;;;;4978609;28;20925;-70
2022/11/11 02:09:01;;;;;;;4.93;2.17;;;5.90;99.90;;;;;;4995202;28;20472;-71
2022/11/11 02:16:57;;;;;;;2.93;1.67;;;5.70;99.90;;;;;;4991898;28;20460;-71
2022/11/11 02:19:33;;;;;;;1.93;1.80;;;5.60;99.90;;;;;;4991072;28;20472;-71
2022/11/11 02:22:02;;;;;;;2.63;2.43;;;5.50;99.90;;;;;;4983277;28;20454;-71
2022/11/11 02:24:32;;;;;;;3.30;1.90;;;5.50;99.90;;;;;;4992325;28;20456;-71
2022/11/11 02:27:00;;;;;;;3.37;1.97;;;5.50;99.90;;;;;;4988480;28;20453;-71
2022/11/11 02:29:28;;;;;;;7.20;2.30;;;5.60;99.90;;;;;;4989637;28;20476;-71
2022/11/11 02:31:56;;;;;;;4.60;2.17;;;5.60;99.90;;;;;;4989099;28;20551;-71
2022/11/11 02:34:29;;;;;;;7.97;1.97;;;5.80;99.90;;;;;;4994941;28;20510;-71
2022/11/11 02:36:56;;;;;;;2.33;1.77;;;6.00;99.90;;;;;;4980935;28;20503;-71
2022/11/11 02:39:24;;;;;;;4.67;2.10;;;5.90;99.90;;;;;;4993629;28;20460;-71
2022/11/11 02:41:57;;;;;;;3.00;2.43;;;5.70;99.90;;;;;;4985607;28;20458;-71
2022/11/11 02:44:24;;;;;;;5.73;2.60;;;5.80;99.90;;;;;;4992911;28;20452;-71
2022/11/11 02:46:51;;;;;;;2.37;1.47;;;5.90;99.90;;;;;;4978755;28;20457;-70
2022/11/11 02:49:18;;;;;;;2.20;1.93;;;5.90;99.90;;;;;;4995449;28;20459;-71
2022/11/11 02:51:46;;;;;;;3.03;2.13;;;5.90;99.90;;;;;;4996521;28;20460;-71
2022/11/11 02:54:13;;;;;;;3.37;2.60;;;5.90;99.90;;;;;;4992125;28;20461;-71
2022/11/11 02:59:25;;;;;;;2.53;1.90;;;5.70;99.90;;;;;;4997287;28;20516;-71
2022/11/11 03:01:52;;;;;;;3.27;1.97;;;5.40;99.90;;;;;;4993462;28;20502;-71
2022/11/11 03:04:19;;;;;;;2.77;1.50;;;5.60;99.90;;;;;;4979795;28;20447;-71
2022/11/11 03:06:46;;;;;;;2.77;1.97;;;5.50;99.90;;;;;;4978429;28;20455;-71
2022/11/11 03:09:13;;;;;;;2.27;1.80;;;5.40;99.90;;;;;;4994008;28;20826;-71
2022/11/11 03:11:40;;;;;;;1.77;1.67;;;5.40;99.90;;;;;;4983795;28;20521;-70
2022/11/11 03:14:07;;;;;;;1.70;1.50;;;5.30;99.90;;;;;;4988997;28;20458;-71
2022/11/11 03:19:20;;;;;;;5.43;2.17;;;5.50;99.90;;;;;;4989780;28;20792;-71
2022/11/11 03:21:46;;;;;;;3.80;2.33;;;5.50;99.90;;;;;;4992087;28;20450;-71
2022/11/11 03:24:12;;;;;;;2.93;2.13;;;5.60;99.90;;;;;;4981036;28;20456;-71
2022/11/11 03:26:38;;;;;;;4.90;4.40;;;5.60;99.90;;;;;;4989055;28;20293;-70
2022/11/11 03:29:06;;;;;;;2.53;2.00;;;5.60;99.90;;;;;;4986402;28;20475;-71
2022/11/11 03:31:32;;;;;;;2.40;1.83;;;5.40;99.90;;;;;;4985689;28;20221;-71
2022/11/11 03:34:16;;;;;;;2.77;1.60;;;5.60;99.90;;;;;;4987166;28;20443;-70
2022/11/11 03:39:28;;;;;;;2.97;1.87;;;5.80;99.90;;;;;;4985620;28;20452;-71
2022/11/11 03:41:55;;;;;;;2.43;1.67;;;5.70;99.90;;;;;;4990094;28;20460;-71
2022/11/11 03:44:22;;;;;;;2.70;2.03;;;5.40;99.90;;;;;;4992735;28;20857;-70
2022/11/11 03:46:49;;;;;;;2.10;1.80;;;5.50;99.90;;;;;;4981441;28;20453;-71
2022/11/11 03:49:17;;;;;;;3.60;2.30;;;5.80;99.90;;;;;;4986419;28;20456;-71
2022/11/11 03:51:43;;;;;;;7.50;2.07;;;6.00;99.90;;;;;;4980796;28;20492;-71
2022/11/11 03:54:10;;;;;;;9.53;2.07;;;5.90;99.90;;;;;;4987542;28;20466;-70
2022/11/11 03:56:37;;;;;;;3.47;2.30;;;6.00;99.90;;;;;;4985462;28;20460;-70
2022/11/11 03:59:04;;;;;;;4.00;1.50;;;6.10;99.90;;;;;;4985248;28;20456;-71
2022/11/11 04:12:30;;;;;;;1.90;1.37;;;6.30;99.90;;;;;;4990744;28;20452;-70
2022/11/11 04:17:41;;;;;;;2.80;1.50;;;6.00;99.90;;;;;;4991403;28;20447;-71
2022/11/11 04:23:06;;;;;;;2.10;1.53;;;5.90;99.90;;;;;;4930979;29;20441;-71
2022/11/11 04:25:52;;;;;;;2.33;1.60;;;6.00;99.90;;;;;;4973019;28;20547;-70
2022/11/11 04:31:03;;;;;;;3.50;2.70;;;5.50;99.90;;;;;;4986772;28;20558;-70
2022/11/11 04:33:29;;;;;;;3.50;2.33;;;5.40;99.90;;;;;;4985599;28;20798;-70
2022/11/11 04:35:56;;;;;;;3.50;1.80;;;5.40;99.90;;;;;;4979151;28;20461;-70
2022/11/11 04:41:11;;;;;;;4.90;2.50;;;5.50;99.90;;;;;;4990870;28;20437;-69
2022/11/11 04:46:19;;;;;;;2.03;1.73;;;5.40;99.90;;;;;;4972312;28;20532;-68
2022/11/11 04:48:46;;;;;;;4.67;2.07;;;5.40;99.90;;;;;;4979474;28;20459;-68
2022/11/11 04:51:12;;;;;;;3.87;2.77;;;5.20;99.90;;;;;;4979947;28;21031;-68
2022/11/11 04:53:40;;;;;;;4.73;4.20;;;5.10;99.90;;;;;;4980164;28;20975;-68
2022/11/11 04:59:14;;;;;;;1.50;1.00;;;5.00;99.90;;;;;;4991184;28;20449;-69
2022/11/11 05:04:23;;;;;;;2.10;1.53;;;5.00;99.90;;;;;;4991540;28;20479;-69
2022/11/11 05:09:36;;;;;;;3.03;1.67;;;5.10;99.90;;;;;;4983446;28;20437;-67
2022/11/11 05:12:03;;;;;;;2.23;1.93;;;5.00;99.90;;;;;;4977914;28;20486;-68
2022/11/11 05:22:44;;;;;;;4.20;2.43;;;5.00;99.90;;;;;;4978972;28;21040;-69
2022/11/11 05:25:24;;;;;;;2.30;2.10;;;5.00;99.90;;;;;;4985386;28;20464;-70
2022/11/11 05:27:51;;;;;;;5.30;2.13;;;4.90;99.90;;;;;;4977818;28;20452;-68
2022/11/11 05:30:18;;;;;;;2.60;1.67;;;5.00;99.90;;;;;;4983080;28;20498;-68
2022/11/11 05:32:45;;;;;;;4.00;2.00;;;5.00;99.90;;;;;;4989650;28;20795;-68
2022/11/11 05:35:14;;;;;;;3.00;2.27;;;5.00;99.90;;;;;;4983353;28;20464;-68
2022/11/11 05:37:41;;;;;;;4.17;2.63;;;4.90;99.90;;;;;;4977325;28;20820;-69
2022/11/11 05:40:09;;;;;;;4.57;2.07;;;4.90;99.90;;;;;;4987312;28;20452;-70
2022/11/11 05:42:41;;;;;;;2.50;2.30;;;4.90;99.90;;;;;;4990594;28;20460;-68
2022/11/11 05:45:09;;;;;;;3.00;2.07;;;4.90;99.90;;;;;;4982358;28;20464;-69
2022/11/11 05:47:36;;;;;;;3.90;2.10;;;4.80;99.90;;;;;;4988230;28;20815;-68
2022/11/11 05:50:02;;;;;;;6.50;2.53;;;4.70;99.90;;;;;;4974811;28;20456;-67
2022/11/11 05:52:30;;;;;;;8.93;2.20;;;4.80;99.90;;;;;;4988294;28;20792;-69
2022/11/11 05:54:57;;;;;;;3.03;2.40;;;4.90;99.90;;;;;;4980024;28;20531;-69
2022/11/11 05:57:24;;;;;;;2.93;2.63;;;5.10;99.90;;;;;;4988296;28;20466;-68
2022/11/11 05:59:52;;;;;;;3.80;1.97;;;5.00;99.90;;;;;;4990167;28;20790;-69
2022/11/11 06:02:20;;;;;;;2.10;1.90;;;4.90;99.90;;;;;;4990439;28;20480;-68
2022/11/11 06:04:47;;;;;;;4.47;3.07;;;4.80;99.90;;;;;;4977757;28;20520;-68
2022/11/11 06:07:13;;;;;;;3.30;2.30;;;4.90;99.90;;;;;;4984905;28;20523;-70
2022/11/11 06:09:40;;;;;;;7.50;2.60;;;5.00;99.90;;;;;;4977482;28;20476;-70
2022/11/11 06:12:07;;;;;;;3.07;2.30;;;5.10;99.90;;;;;;4984813;28;20483;-70
2022/11/11 06:14:34;;;;;;;4.00;2.70;;;5.00;99.90;;;;;;4985047;28;20450;-70
2022/11/11 06:17:02;;;;;;;1.73;1.37;;;4.90;99.90;;;;;;4972572;28;20458;-69
2022/11/11 06:19:29;;;;;;;3.00;2.30;;;5.00;99.90;;;;;;4985495;28;20453;-70
2022/11/11 06:22:00;;;;;;;3.10;2.40;;;5.00;99.90;;;;;;4971154;28;20968;-70
2022/11/11 06:24:27;;;;;;;3.30;3.00;;;5.00;99.90;;;;;;4985130;28;20945;-70
2022/11/11 06:26:53;;;;;;;5.43;2.47;;;5.00;99.90;;;;;;4971529;28;20450;-70
2022/11/11 06:29:20;;;;;;;3.53;2.50;;;5.10;99.90;;;;;;4984728;28;20460;-69
2022/11/11 06:31:47;;;;;;;3.93;3.10;;;5.20;99.90;;;;;;4971251;28;20988;-70
2022/11/11 06:34:15;;;;;;;4.50;2.83;;;5.50;99.90;;;;;;4985235;28;20479;-70
2022/11/11 06:36:42;;;;;;;3.20;2.57;;;5.50;99.90;;;;;;4971618;28;20467;-69
2022/11/11 06:39:09;;;;;;;3.67;2.17;;;5.40;99.90;;;;;;4985280;28;20464;-70
2022/11/11 06:41:36;;;;;;;2.90;1.97;;;5.30;99.90;;;;;;4979988;28;20459;-69
2022/11/11 06:44:02;;;;;;;4.00;2.50;;;5.30;99.90;;;;;;4988615;28;20480;-70
2022/11/11 06:46:30;;;;;;;3.40;2.70;;;5.70;99.90;;;;;;4975258;28;20941;-70
2022/11/11 06:48:57;;;;;;;3.60;2.27;;;6.00;99.90;;;;;;4988280;28;20453;-70
2022/11/11 06:51:25;;;;;;;5.90;2.77;;;5.90;99.90;;;;;;4974863;28;21004;-70
2022/11/11 06:53:52;;;;;;;7.90;2.33;;;6.10;99.90;;;;;;4987917;28;20551;-69
2022/11/11 06:56:19;;;;;;;5.23;3.27;;;5.70;99.90;;;;;;4975463;28;20482;-70
2022/11/11 06:58:45;;;;;;;4.47;2.40;;;5.70;99.90;;;;;;4987909;28;20456;-69
2022/11/11 07:01:13;;;;;;;3.87;2.57;;;5.70;99.90;;;;;;4984409;28;20491;-70
2022/11/11 07:03:40;;;;;;;4.10;2.80;;;5.70;99.90;;;;;;4981465;28;20460;-69
2022/11/11 07:06:07;;;;;;;2.70;1.90;;;5.70;99.90;;;;;;4984655;28;20457;-69
2022/11/11 07:08:35;;;;;;;3.10;2.20;;;5.60;99.90;;;;;;4984212;28;20464;-70
2022/11/11 07:11:02;;;;;;;3.97;2.17;;;5.80;99.90;;;;;;4983266;28;20496;-70
2022/11/11 07:13:28;;;;;;;4.33;2.53;;;5.70;99.90;;;;;;4988128;28;20495;-70
2022/11/11 07:15:55;;;;;;;3.83;2.33;;;5.70;99.90;;;;;;4974364;28;20462;-69
2022/11/11 07:18:22;;;;;;;3.80;1.87;;;5.70;99.90;;;;;;4988139;28;20470;-69
2022/11/11 07:20:49;;;;;;;4.10;2.70;;;5.70;99.90;;;;;;4973823;28;20454;-69
2022/11/11 07:23:16;;;;;;;3.50;2.17;;;5.80;99.90;;;;;;4987927;28;20472;-70
2022/11/11 07:25:45;;;;;;;4.00;2.20;;;5.80;99.90;;;;;;4974361;28;20458;-69
2022/11/11 07:28:11;;;;;;;3.20;2.90;;;5.90;99.90;;;;;;4987886;28;20854;-69
2022/11/11 07:30:38;;;;;;;2.07;1.63;;;5.90;99.90;;;;;;4973879;28;20464;-69
2022/11/11 07:33:06;;;;;;;3.40;1.70;;;5.90;99.90;;;;;;4987758;28;20465;-70
2022/11/11 07:35:32;;;;;;;5.30;2.63;;;6.00;99.90;;;;;;4974936;28;20577;-70
2022/11/11 07:37:59;;;;;;;2.90;2.40;;;6.00;99.90;;;;;;4987449;28;20457;-69
2022/11/11 07:40:26;;;;;;;10.27;2.30;;;6.00;99.90;;;;;;4981888;28;20453;-70
2022/11/11 07:42:54;;;;;;;3.50;2.40;;;6.20;99.90;;;;;;4979662;28;20480;-71
2022/11/11 07:45:21;;;;;;;3.30;2.40;;;6.30;99.90;;;;;;4981145;28;20481;-70
2022/11/11 07:47:48;;;;;;;5.20;2.60;;;6.30;99.90;;;;;;4979957;28;20460;-69
2022/11/11 07:50:15;;;;;;;3.67;2.90;;;6.40;99.90;;;;;;4981228;28;20454;-69
2022/11/11 07:52:47;;;;;;;4.90;3.60;;;6.40;99.90;;;;;;4979249;28;20487;-69
2022/11/11 07:55:14;;;;;;;3.93;2.80;;;6.50;99.90;;;;;;4979871;28;20460;-69
2022/11/11 07:57:41;;;;;;;3.47;2.90;;;6.60;99.90;;;;;;4981117;28;20944;-68
2022/11/11 08:00:11;;;;;;;2.80;2.40;;;6.70;99.90;;;;;;4980454;28;20814;-68
2022/11/11 08:02:37;;;;;;;9.67;3.90;;;6.90;99.90;;;;;;4984637;28;20447;-68
2022/11/11 08:05:05;;;;;;;3.60;3.30;;;7.20;99.90;;;;;;4987506;28;20461;-69
2022/11/11 08:07:35;;;;;;;3.43;2.50;;;6.90;99.90;;;;;;4974984;28;20828;-69
2022/11/11 08:10:01;;;;;;;3.03;2.40;;;7.00;99.90;;;;;;4991300;28;20460;-69
2022/11/11 08:15:14;;;;;;;4.63;3.20;;;6.90;99.90;;;;;;4993243;28;20437;-69
2022/11/11 08:17:41;;;;;;;5.10;2.97;;;7.00;99.90;;;;;;4981109;28;20777;-69
2022/11/11 08:20:09;;;;;;;3.13;2.43;;;7.20;99.90;;;;;;4979376;28;20455;-69
2022/11/11 08:22:37;;;;;;;4.17;2.67;;;7.20;99.90;;;;;;4979973;28;20454;-68
2022/11/11 08:25:06;;;;;;;6.77;3.27;;;7.20;99.90;;;;;;4979799;28;20462;-69
2022/11/11 08:27:33;;;;;;;3.27;2.60;;;7.20;99.90;;;;;;4979661;28;20470;-68
2022/11/11 08:30:00;;;;;;;5.70;3.00;;;7.30;99.90;;;;;;4980772;28;20550;-69
2022/11/11 08:32:28;;;;;;;3.00;2.20;;;7.40;99.90;;;;;;4979184;28;20492;-69
2022/11/11 08:34:55;;;;;;;7.03;3.00;;;7.40;99.90;;;;;;4980448;28;20464;-69
2022/11/11 08:37:22;;;;;;;3.50;2.40;;;7.40;99.90;;;;;;4979218;28;20447;-69
2022/11/11 08:39:51;;;;;;;5.40;3.37;;;7.50;99.90;;;;;;4980747;28;20446;-69
2022/11/11 08:42:18;;;;;;;2.40;2.10;;;7.50;99.90;;;;;;4979301;28;20464;-69
2022/11/11 08:44:44;;;;;;;3.13;2.83;;;7.60;99.90;;;;;;4984124;28;20448;-69
2022/11/11 08:47:11;;;;;;;5.07;2.87;;;7.60;99.90;;;;;;4975280;28;20456;-69
2022/11/11 08:49:39;;;;;;;4.00;3.50;;;7.60;99.90;;;;;;4983045;28;20939;-69
2022/11/11 08:52:06;;;;;;;4.63;3.00;;;7.80;99.90;;;;;;4975495;28;20487;-69
2022/11/11 08:54:33;;;;;;;3.67;2.40;;;7.80;99.90;;;;;;4983671;28;20506;-69
2022/11/11 08:57:00;;;;;;;3.10;2.77;;;7.80;99.90;;;;;;4976168;28;20454;-69
2022/11/11 08:59:27;;;;;;;6.33;3.67;;;7.90;99.90;;;;;;4983141;28;20461;-69
2022/11/11 09:01:54;;;;;;;2.17;1.90;;;7.90;99.90;;;;;;4987670;28;20484;-69
2022/11/11 09:04:20;;;;;;;7.13;3.40;;;8.00;99.90;;;;;;4983666;28;20545;-69
2022/11/11 09:06:49;;;;;;;3.67;2.60;;;8.00;99.90;;;;;;4974672;28;20834;-69
2022/11/11 09:09:16;;;;;;;5.10;3.00;;;8.10;99.90;;;;;;4978007;28;20464;-69
2022/11/11 09:11:42;;;;;;;4.60;2.50;;;8.20;99.90;;;;;;4976373;28;20491;-69
2022/11/11 09:14:09;;;;;;;2.70;2.13;;;8.20;99.90;;;;;;4983236;28;20454;-72
2022/11/11 09:16:36;;;;;;;3.50;2.40;;;8.30;99.90;;;;;;4975384;28;20456;-68
2022/11/11 09:19:03;;;;;;;2.93;2.33;;;8.50;99.90;;;;;;4982928;28;20469;-70
2022/11/11 09:21:30;;;;;;;6.50;2.70;;;8.60;99.90;;;;;;4975700;28;20815;-69
2022/11/11 09:23:59;;;;;;;6.63;2.97;;;8.70;83.80;;;;;;4982153;28;20450;-69
2022/11/11 09:26:26;;;;;;;3.90;2.83;;;8.80;26.60;;;;;;4975607;28;20544;-69
2022/11/11 09:28:53;;;;;;;4.20;2.87;;;8.80;1.00;;;;;;4981974;28;20816;-70
2022/11/11 09:31:19;;;;;;;5.73;2.97;;;8.90;17.70;;;;;;4975592;28;20489;-69
2022/11/11 09:33:46;;;;;;;3.00;2.07;;;8.90;31.20;;;;;;4981380;28;20458;-69
2022/11/11 09:36:13;;;;;;;5.50;2.97;;;9.00;20.40;;;;;;4976281;28;20461;-69
2022/11/11 09:38:40;;;;;;;4.13;2.60;;;9.00;1.00;;;;;;4981342;28;20455;-69
2022/11/11 09:41:21;;;;;;;7.47;2.10;;;9.20;1.00;;;;;;4981150;28;20454;-69
2022/11/11 09:43:54;;;;;;;3.60;2.53;;;9.30;1.00;;;;;;4984503;28;20461;-69
2022/11/11 09:46:30;;;;;;;3.00;2.20;;;9.40;1.00;;;;;;4985708;28;20529;-69
2022/11/11 09:49:11;;;;;;;3.77;2.77;;;9.50;1.00;;;;;;4973553;28;20458;-69
2022/11/11 09:51:46;;;;;;;4.40;2.60;;;9.60;1.00;;;;;;4981277;28;20483;-71
2022/11/11 09:54:18;;;;;;;3.63;3.03;;;9.70;1.00;;;;;;4976929;28;20540;-70
2022/11/11 09:56:47;;;;;;;3.30;2.30;;;9.80;1.00;;;;;;4979472;28;20441;-70
2022/11/11 09:59:18;;;;;;;7.73;3.40;;;9.90;1.00;;;;;;4978491;28;20456;-69
2022/11/11 10:01:49;;;;;;;4.33;2.47;;;10.10;1.00;;;;;;4990802;28;20477;-69
2022/11/11 10:04:35;;;;;;;6.13;3.50;;;10.20;1.00;;;;;;4983228;28;20967;-69
2022/11/11 10:07:09;;;;;;;5.50;3.30;;;10.40;1.00;;;;;;4976989;28;20449;-69
2022/11/11 10:09:44;;;;;;;4.07;2.60;;;10.60;1.00;;;;;;4974429;28;20945;-69
2022/11/11 10:12:14;;;;;;;2.50;2.07;;;10.70;99.90;;;;;;4971919;28;20556;-70
2022/11/11 10:14:45;;;;;;;6.70;2.50;;;10.70;99.90;;;;;;4971585;28;20925;-69
2022/11/11 10:17:25;;;;;;;3.00;2.63;;;10.80;99.90;;;;;;4983006;28;20456;-70
2022/11/11 10:20:02;;;;;;;3.43;2.40;;;10.90;99.90;;;;;;4978609;28;20451;-70
2022/11/11 10:22:34;;;;;;;2.83;2.63;;;10.90;99.90;;;;;;4987270;28;20456;-69
2022/11/11 10:25:09;;;;;;;3.33;3.03;;;11.00;99.90;;;;;;4976429;28;20487;-69
2022/11/11 10:27:39;;;;;;;5.20;3.87;;;11.00;1.00;;;;;;4988093;28;20444;-68
2022/11/11 10:30:17;;;;;;;6.40;3.90;;;11.10;1.00;;;;;;4975981;28;20460;-69
2022/11/11 10:32:53;;;;;;;4.50;3.13;;;11.20;99.90;;;;;;4988376;28;20478;-69
2022/11/11 10:35:23;;;;;;;5.90;4.23;;;11.10;25.80;;;;;;4975842;28;20442;-69
2022/11/11 10:37:58;;;;;;;4.73;3.80;;;11.20;62.30;;;;;;4988153;28;20450;-70
2022/11/11 10:40:30;;;;;;;8.30;4.10;;;11.20;1.00;;;;;;4982343;28;20444;-69
2022/11/11 10:42:58;;;;;;;11.10;4.57;;;11.30;1.00;;;;;;4983075;28;20939;-69
2022/11/11 10:45:31;;;;;;;5.90;2.40;;;11.30;99.90;;;;;;4981125;28;20458;-69
2022/11/11 10:48:02;;;;;;;3.83;2.90;;;11.40;99.90;;;;;;4983584;28;20452;-69
2022/11/11 10:50:35;;;;;;;4.03;3.13;;;11.40;99.90;;;;;;4978869;28;20464;-70
2022/11/11 10:53:10;;;;;;;3.60;3.30;;;11.40;99.90;;;;;;4985729;28;20924;-69
2022/11/11 10:55:45;;;;;;;7.73;4.33;;;11.50;99.90;;;;;;4976508;28;20812;-70
2022/11/11 10:58:20;;;;;;;4.70;3.50;;;11.40;99.90;;;;;;4988043;28;20458;-70
2022/11/11 11:00:50;;;;;;;7.20;4.20;;;11.50;99.90;;;;;;4992992;28;20476;-69
2022/11/11 11:03:23;;;;;;;4.80;3.73;;;11.50;99.90;;;;;;4994151;28;20452;-69
2022/11/11 11:05:56;;;;;;;4.40;3.83;;;11.50;99.90;;;;;;4974532;28;20441;-70
2022/11/11 11:08:28;;;;;;;6.87;4.07;;;11.60;99.90;;;;;;4983091;28;20460;-69
2022/11/11 11:10:58;;;;;;;6.93;4.17;;;11.70;64.20;;;;;;4976049;28;20685;-70
2022/11/11 11:13:34;;;;;;;8.27;5.23;;;11.70;1.00;;;;;;4987966;28;20540;-70
2022/11/11 11:16:05;;;;;;;6.27;5.03;;;11.90;1.00;;;;;;4975452;28;20446;-69
2022/11/11 11:18:32;;;;;;;6.97;4.03;;;12.00;99.90;;;;;;4988163;28;20456;-69
2022/11/11 11:21:00;;;;;;;5.37;3.70;;;12.10;99.90;;;;;;4974294;28;20450;-69
2022/11/11 11:23:39;;;;;;;4.97;3.90;;;12.10;99.90;;;;;;4988134;28;20500;-69
2022/11/11 11:26:07;;;;;;;4.23;3.73;;;12.20;99.90;;;;;;4975473;28;20464;-69
2022/11/11 11:28:35;;;;;;;5.30;3.70;;;12.30;99.90;;;;;;4986437;28;20458;-70
2022/11/11 11:31:04;;;;;;;6.03;4.00;;;12.30;1.00;;;;;;4975802;28;20472;-69
2022/11/11 11:33:51;;;;;;;8.70;4.50;;;12.20;99.90;;;;;;4986045;28;20493;-69
2022/11/11 11:36:19;;;;;;;5.47;3.80;;;12.30;99.90;;;;;;4979248;28;20448;-70
2022/11/11 11:38:49;;;;;;;6.60;3.80;;;12.40;99.90;;;;;;4982179;28;20446;-70
2022/11/11 11:41:16;;;;;;;6.73;3.83;;;12.40;99.90;;;;;;4982559;28;20497;-69
2022/11/11 11:43:45;;;;;;;11.93;4.10;;;12.50;93.70;;;;;;4986276;28;20464;-69
2022/11/11 11:46:20;;;;;;;7.33;4.80;;;12.60;1.00;;;;;;4974927;28;20937;-70
2022/11/11 11:49:10;;;;;;;6.23;3.50;;;12.60;99.90;;;;;;4987012;28;20448;-70
2022/11/11 11:51:43;;;;;;;5.60;3.90;;;12.50;1.00;;;;;;4973446;28;20446;-70
2022/11/11 11:54:49;;;;;;;5.30;3.80;;;12.60;99.90;;;;;;4987691;28;21119;-71
2022/11/11 11:57:25;;;;;;;6.13;4.37;;;12.70;99.90;;;;;;4957180;28;20852;-71
2022/11/11 12:00:02;;;;;;;9.47;4.37;;;12.60;99.90;;;;;;4993161;28;20453;-70
2022/11/11 12:02:51;;;;;;;6.10;4.40;;;12.60;99.90;;;;;;4973664;28;20528;-71
2022/11/11 12:05:25;;;;;;;9.00;4.90;;;12.70;78.20;;;;;;4987311;28;20441;-71
2022/11/11 12:08:12;;;;;;;8.07;4.67;;;12.80;1.00;;;;;;4977226;28;20449;-70
2022/11/11 12:10:48;;;;;;;6.10;3.83;;;12.90;1.00;;;;;;4974756;28;20529;-69
2022/11/11 12:13:30;;;;;;;6.00;4.13;;;13.00;1.00;;;;;;4986781;28;20485;-71
2022/11/11 12:16:12;;;;;;;6.23;4.10;;;13.10;99.90;;;;;;4973806;28;20461;-71
2022/11/11 12:18:54;;;;;;;6.03;4.00;;;13.10;99.90;;;;;;4980563;28;20453;-69
2022/11/11 12:21:26;;;;;;;6.83;4.17;;;13.20;99.90;;;;;;4979386;28;20457;-71
2022/11/11 12:24:05;;;;;;;5.60;4.10;;;13.30;99.90;;;;;;4982703;28;20454;-71
2022/11/11 12:26:38;;;;;;;4.00;3.57;;;13.50;1.00;;;;;;4986564;28;20450;-70
2022/11/11 12:29:15;;;;;;;7.53;4.83;;;13.60;1.00;;;;;;4973193;28;20447;-70
2022/11/11 12:31:56;;;;;;;10.93;4.30;;;13.60;1.00;;;;;;4979987;28;20461;-71
2022/11/11 12:34:48;;;;;;;7.80;3.77;;;13.60;1.00;;;;;;4976525;28;20462;-71
2022/11/11 12:37:25;;;;;;;6.50;3.70;;;13.70;1.00;;;;;;4985578;28;20450;-70
2022/11/11 12:40:07;;;;;;;4.70;3.50;;;13.60;1.00;;;;;;4974094;28;20445;-72
2022/11/11 12:42:47;;;;;;;7.60;5.13;;;13.50;99.90;;;;;;4979458;28;20453;-71
2022/11/11 12:45:18;;;;;;;7.70;4.17;;;13.50;99.90;;;;;;4980305;28;20970;-71
2022/11/11 12:47:56;;;;;;;4.00;3.27;;;13.60;99.90;;;;;;4972031;28;20451;-71
2022/11/11 12:50:28;;;;;;;4.20;3.73;;;13.80;1.00;;;;;;4985353;28;20445;-71
2022/11/11 12:53:15;;;;;;;6.47;4.00;;;13.80;99.90;;;;;;4972255;28;20484;-71
2022/11/11 12:55:50;;;;;;;4.67;3.97;;;14.00;1.00;;;;;;4985126;28;20818;-71
2022/11/11 12:58:28;;;;;;;4.00;3.40;;;14.00;1.00;;;;;;4972992;28;20468;-71
2022/11/11 13:01:10;;;;;;;4.03;3.60;;;14.10;1.00;;;;;;4979583;28;20500;-71
2022/11/11 13:03:51;;;;;;;5.73;3.97;;;14.10;1.00;;;;;;4989083;28;20457;-69
2022/11/11 13:06:36;;;;;;;4.07;3.67;;;14.30;1.00;;;;;;4972943;28;20799;-72
2022/11/11 13:09:20;;;;;;;6.23;3.93;;;14.40;99.90;;;;;;4985283;28;20964;-71
2022/11/11 13:11:56;;;;;;;5.40;3.43;;;14.30;1.00;;;;;;4977461;28;20929;-71
2022/11/11 13:14:44;;;;;;;4.10;2.87;;;14.20;1.00;;;;;;4980342;28;20477;-71
2022/11/11 13:17:12;;;;;;;4.10;3.30;;;14.10;1.00;;;;;;4972453;28;20457;-71
2022/11/11 13:19:44;;;;;;;4.47;3.00;;;14.00;1.00;;;;;;4984798;28;20463;-70
2022/11/11 13:22:22;;;;;;;4.30;3.53;;;14.00;99.90;;;;;;4972268;28;20438;-71
2022/11/11 13:24:49;;;;;;;3.00;2.77;;;14.00;99.90;;;;;;4984873;28;20450;-71
2022/11/11 13:27:20;;;;;;;8.10;3.63;;;14.30;1.00;;;;;;4972303;28;20450;-71
2022/11/11 13:30:24;;;;;;;4.37;3.73;;;14.60;94.30;;;;;;4983570;28;20453;-71
2022/11/11 13:32:56;;;;;;;4.13;3.00;;;14.90;58.80;;;;;;4975367;28;20511;-71
2022/11/11 13:35:30;;;;;;;4.03;3.60;;;14.90;1.00;;;;;;4981644;28;20478;-71
2022/11/11 13:37:57;;;;;;;3.37;2.93;;;15.20;99.90;;;;;;4977265;28;20446;-71
2022/11/11 13:40:33;;;;;;;4.20;3.00;;;15.30;1.00;;;;;;4986631;28;20468;-71
2022/11/11 13:43:01;;;;;;;4.10;2.83;;;15.20;99.90;;;;;;4985444;28;20446;-71
2022/11/11 13:45:34;;;;;;;5.10;2.93;;;15.10;1.00;;;;;;4985480;28;20448;-71
2022/11/11 13:48:01;;;;;;;3.90;3.50;;;15.00;1.00;;;;;;4972820;28;21131;-71
2022/11/11 13:50:31;;;;;;;3.40;3.00;;;15.00;1.00;;;;;;4984795;28;20464;-71
2022/11/11 13:53:01;;;;;;;5.70;3.27;;;15.10;1.00;;;;;;4971855;28;20553;-71
2022/11/11 13:55:33;;;;;;;4.40;3.10;;;15.00;1.00;;;;;;4985564;28;20453;-71
2022/11/11 13:58:01;;;;;;;3.00;2.70;;;14.90;1.00;;;;;;4972579;28;20451;-71
2022/11/11 14:00:32;;;;;;;3.10;2.67;;;14.90;1.00;;;;;;4988173;28;20489;-71
2022/11/11 14:03:44;;;;;;;5.03;2.90;;;14.90;1.00;;;;;;4991299;28;20453;-71
2022/11/11 14:06:49;;;;;;;4.47;2.80;;;15.00;1.00;;;;;;4981286;28;20442;-71
2022/11/11 14:09:53;;;;;;;3.50;2.53;;;15.20;1.00;;;;;;4991456;28;20956;-71
2022/11/11 14:12:22;;;;;;;5.83;2.70;;;15.20;1.00;;;;;;4959073;28;20450;-71
2022/11/11 14:14:56;;;;;;;3.87;3.07;;;15.30;1.00;;;;;;4984720;28;20457;-71
2022/11/11 14:17:24;;;;;;;3.97;2.93;;;15.20;1.00;;;;;;4971751;28;20452;-71
2022/11/11 14:19:51;;;;;;;3.63;2.70;;;15.10;1.00;;;;;;4983949;28;20478;-70
2022/11/11 14:22:30;;;;;;;4.00;2.37;;;15.00;1.00;;;;;;4971889;28;20948;-71
2022/11/11 14:25:10;;;;;;;4.77;2.83;;;15.00;1.00;;;;;;4984251;28;20488;-71
2022/11/11 14:27:45;;;;;;;8.47;3.70;;;15.00;1.00;;;;;;4971304;28;20496;-71
2022/11/11 14:30:27;;;;;;;3.93;2.50;;;15.10;1.00;;;;;;4982856;28;20827;-71